createdAt,value
2022-09-18T00:00:53.800Z,988.7
2022-09-18T00:03:18.919Z,988.7
2022-09-18T00:05:45.018Z,988.7
2022-09-18T00:08:11.099Z,988.7
2022-09-18T00:10:37.196Z,988.8
2022-09-18T00:13:03.287Z,988.8
2022-09-18T00:15:29.386Z,988.8
2022-09-18T00:17:55.491Z,988.7
2022-09-18T00:20:21.567Z,988.7
2022-09-18T00:22:47.663Z,988.7
2022-09-18T00:25:13.770Z,988.7
2022-09-18T00:27:39.874Z,988.7
2022-09-18T00:30:05.963Z,988.7
2022-09-18T00:32:32.062Z,988.7
2022-09-18T00:34:57.161Z,988.8
2022-09-18T00:37:23.269Z,988.7
2022-09-18T00:39:49.364Z,988.7
2022-09-18T00:42:15.460Z,988.7
2022-09-18T00:44:41.538Z,988.7
2022-09-18T00:47:07.638Z,988.7
2022-09-18T00:49:33.738Z,988.7
2022-09-18T00:51:59.847Z,988.7
2022-09-18T00:54:25.944Z,988.7
2022-09-18T00:56:52.037Z,988.8
2022-09-18T00:59:18.123Z,988.8
2022-09-18T01:01:44.211Z,988.8
2022-09-18T01:04:10.303Z,988.8
2022-09-18T01:06:35.426Z,988.8
2022-09-18T01:09:01.513Z,988.8
2022-09-18T01:11:27.623Z,988.7
2022-09-18T01:13:53.704Z,988.8
2022-09-18T01:16:19.808Z,988.8
2022-09-18T01:18:45.905Z,988.8
2022-09-18T01:21:11.977Z,988.8
2022-09-18T01:23:38.093Z,988.8
2022-09-18T01:26:04.194Z,988.8
2022-09-18T01:28:30.280Z,988.8
2022-09-18T01:30:56.359Z,988.8
2022-09-18T01:33:22.483Z,988.8
2022-09-18T01:35:48.559Z,988.8
2022-09-18T01:38:13.671Z,988.7
2022-09-18T01:40:39.764Z,988.7
2022-09-18T01:43:05.867Z,988.8
2022-09-18T01:45:31.949Z,988.8
2022-09-18T01:47:58.059Z,988.8
2022-09-18T01:50:24.141Z,988.8
2022-09-18T01:52:50.241Z,988.7
2022-09-18T01:55:16.356Z,988.7
2022-09-18T01:57:42.445Z,988.7
2022-09-18T02:00:08.524Z,988.7
2022-09-18T02:02:34.630Z,988.7
2022-09-18T02:05:00.725Z,988.7
2022-09-18T02:07:26.823Z,988.7
2022-09-18T02:09:51.923Z,988.6
2022-09-18T02:12:18.013Z,988.5
2022-09-18T02:14:44.110Z,988.5
2022-09-18T02:17:10.206Z,988.5
2022-09-18T02:19:36.313Z,988.5
2022-09-18T02:22:02.404Z,988.4
2022-09-18T02:24:28.502Z,988.4
2022-09-18T02:26:54.587Z,988.5
2022-09-18T02:29:20.679Z,988.5
2022-09-18T02:31:46.791Z,988.5
2022-09-18T02:34:12.876Z,988.6
2022-09-18T02:36:38.981Z,988.5
2022-09-18T02:39:05.059Z,988.5
2022-09-18T02:41:30.175Z,988.5
2022-09-18T02:43:56.280Z,988.5
2022-09-18T02:46:22.374Z,988.5
2022-09-18T02:48:48.461Z,988.4
2022-09-18T02:51:14.563Z,988.5
2022-09-18T02:53:40.655Z,988.5
2022-09-18T02:56:06.753Z,988.5
2022-09-18T02:58:32.841Z,988.5
2022-09-18T03:00:58.940Z,988.5
2022-09-18T03:03:25.031Z,988.4
2022-09-18T03:05:51.134Z,988.5
2022-09-18T03:08:17.237Z,988.5
2022-09-18T03:10:43.327Z,988.5
2022-09-18T03:13:08.434Z,988.5
2022-09-18T03:15:34.540Z,988.5
2022-09-18T03:18:00.626Z,988.5
2022-09-18T03:20:26.730Z,988.5
2022-09-18T03:22:52.810Z,988.5
2022-09-18T03:25:18.904Z,988.4
2022-09-18T03:27:45.021Z,988.4
2022-09-18T03:30:11.107Z,988.4
2022-09-18T03:32:37.202Z,988.4
2022-09-18T03:35:03.286Z,988.5
2022-09-18T03:37:29.400Z,988.5
2022-09-18T03:39:55.479Z,988.3
2022-09-18T03:42:21.579Z,988.4
2022-09-18T03:44:46.685Z,988.5
2022-09-18T03:47:12.790Z,988.4
2022-09-18T03:49:38.871Z,988.5
2022-09-18T03:52:04.983Z,988.5
2022-09-18T03:54:31.079Z,988.5
2022-09-18T03:56:57.173Z,988.5
2022-09-18T03:59:23.265Z,988.5
2022-09-18T04:01:49.351Z,988.5
2022-09-18T04:04:15.447Z,988.5
2022-09-18T04:06:41.550Z,988.6
2022-09-18T04:09:07.648Z,988.6
2022-09-18T04:11:33.743Z,988.6
2022-09-18T04:13:59.836Z,988.6
2022-09-18T04:16:24.954Z,988.6
2022-09-18T04:18:51.041Z,988.7
2022-09-18T04:21:17.138Z,988.6
2022-09-18T04:23:43.224Z,988.6
2022-09-18T04:26:09.320Z,988.6
2022-09-18T04:28:35.427Z,988.6
2022-09-18T04:31:00.536Z,988.6
2022-09-18T04:33:26.667Z,988.6
2022-09-18T04:35:52.722Z,988.6
2022-09-18T04:38:18.824Z,988.6
2022-09-18T04:40:44.919Z,988.7
2022-09-18T04:43:11.015Z,988.7
2022-09-18T04:45:37.117Z,988.7
2022-09-18T04:48:03.218Z,988.7
2022-09-18T04:50:29.318Z,988.7
2022-09-18T04:52:55.392Z,988.6
2022-09-18T04:55:21.485Z,988.6
2022-09-18T04:57:47.593Z,988.6
2022-09-18T05:00:13.686Z,988.7
2022-09-18T05:02:38.837Z,988.7
2022-09-18T05:05:04.899Z,988.6
2022-09-18T05:07:30.988Z,988.7
2022-09-18T05:09:57.078Z,988.7
2022-09-18T05:12:23.178Z,988.7
2022-09-18T05:14:49.279Z,988.8
2022-09-18T05:17:15.367Z,988.8
2022-09-18T05:19:41.459Z,988.8
2022-09-18T05:22:07.563Z,988.8
2022-09-18T05:24:33.651Z,988.8
2022-09-18T05:26:59.753Z,988.9
2022-09-18T05:29:25.848Z,988.9
2022-09-18T05:31:51.932Z,988.9
2022-09-18T05:34:17.055Z,988.9
2022-09-18T05:36:43.163Z,989
2022-09-18T05:39:09.311Z,988.9
2022-09-18T05:41:35.339Z,989
2022-09-18T05:44:01.440Z,988.9
2022-09-18T05:46:27.537Z,988.9
2022-09-18T05:48:53.617Z,988.9
2022-09-18T05:51:19.721Z,988.9
2022-09-18T05:53:45.810Z,988.9
2022-09-18T05:56:11.925Z,988.9
2022-09-18T05:58:38.012Z,988.9
2022-09-18T06:01:04.117Z,988.9
2022-09-18T06:03:30.206Z,988.9
2022-09-18T06:05:55.300Z,988.9
2022-09-18T06:08:21.407Z,989
2022-09-18T06:10:47.507Z,989
2022-09-18T06:13:13.595Z,989.1
2022-09-18T06:15:39.684Z,989
2022-09-18T06:18:05.778Z,988.9
2022-09-18T06:20:31.880Z,989
2022-09-18T06:22:57.985Z,989
2022-09-18T06:25:24.066Z,989
2022-09-18T06:27:50.180Z,989
2022-09-18T06:30:16.257Z,989
2022-09-18T06:32:42.357Z,989.1
2022-09-18T06:35:08.478Z,989.1
2022-09-18T06:37:33.570Z,989.1
2022-09-18T06:39:59.672Z,989.1
2022-09-18T06:42:25.782Z,989.1
2022-09-18T06:44:51.839Z,989
2022-09-18T06:47:17.950Z,989.1
2022-09-18T06:49:44.049Z,989
2022-09-18T06:52:10.133Z,989
2022-09-18T06:54:36.235Z,989.1
2022-09-18T06:57:02.335Z,989.1
2022-09-18T06:59:28.417Z,989.1
2022-09-18T07:01:54.509Z,989
2022-09-18T07:04:20.656Z,989
2022-09-18T07:06:46.705Z,989
2022-09-18T07:09:11.813Z,989
2022-09-18T07:11:37.915Z,989.1
2022-09-18T07:14:04.016Z,989.1
2022-09-18T07:16:30.101Z,989.1
2022-09-18T07:18:56.205Z,989.1
2022-09-18T07:21:22.293Z,989.1
2022-09-18T07:23:48.393Z,989.1
2022-09-18T07:26:14.498Z,989.1
2022-09-18T07:28:40.594Z,989.1
2022-09-18T07:33:32.842Z,989.1
2022-09-18T07:35:58.874Z,989.2
2022-09-18T07:38:24.969Z,989.2
2022-09-18T07:40:50.071Z,989.2
2022-09-18T07:43:16.165Z,989.2
2022-09-18T07:45:42.314Z,989.3
2022-09-18T07:48:08.368Z,989.2
2022-09-18T07:50:34.466Z,989.2
2022-09-18T07:53:00.576Z,989.2
2022-09-18T07:55:26.660Z,989.2
2022-09-18T07:57:52.756Z,989.3
2022-09-18T08:00:18.836Z,989.3
2022-09-18T08:02:44.935Z,989.3
2022-09-18T08:05:11.035Z,989.3
2022-09-18T08:07:37.129Z,989.3
2022-09-18T08:10:03.214Z,989.3
2022-09-18T08:12:28.329Z,989.4
2022-09-18T08:14:54.453Z,989.3
2022-09-18T08:17:20.570Z,989.4
2022-09-18T08:19:46.629Z,989.3
2022-09-18T08:22:12.744Z,989.3
2022-09-18T08:24:38.819Z,989.3
2022-09-18T08:27:04.919Z,989.4
2022-09-18T08:29:31.029Z,989.4
2022-09-18T08:31:57.115Z,989.4
2022-09-18T08:34:23.216Z,989.4
2022-09-18T08:36:49.342Z,989.4
2022-09-18T08:41:41.556Z,989.3
2022-09-18T08:44:06.615Z,989.3
2022-09-18T08:46:32.696Z,989.3
2022-09-18T08:48:58.814Z,989.3
2022-09-18T08:51:24.889Z,989.3
2022-09-18T08:53:50.977Z,989.3
2022-09-18T08:56:17.078Z,989.4
2022-09-18T08:58:43.171Z,989.4
2022-09-18T09:01:09.293Z,989.3
2022-09-18T09:03:35.363Z,989.4
2022-09-18T09:06:01.486Z,989.3
2022-09-18T09:08:27.552Z,989.3
2022-09-18T09:10:53.634Z,989.3
2022-09-18T09:13:19.745Z,989.5
2022-09-18T09:15:44.932Z,989.5
2022-09-18T09:18:11.086Z,989.4
2022-09-18T09:20:37.139Z,989.5
2022-09-18T09:23:03.158Z,989.5
2022-09-18T09:25:29.232Z,989.5
2022-09-18T09:27:55.332Z,989.4
2022-09-18T09:30:21.418Z,989.5
2022-09-18T09:32:47.535Z,989.4
2022-09-18T09:35:13.634Z,989.5
2022-09-18T09:37:39.708Z,989.6
2022-09-18T09:40:05.987Z,989.6
2022-09-18T09:42:31.914Z,989.5
2022-09-18T09:44:57.992Z,989.5
2022-09-18T09:47:23.134Z,989.5
2022-09-18T09:49:49.204Z,989.5
2022-09-18T09:52:15.299Z,989.4
2022-09-18T09:54:41.412Z,989.5
2022-09-18T09:57:07.532Z,989.5
2022-09-18T09:59:33.596Z,989.5
2022-09-18T10:01:59.694Z,989.5
2022-09-18T10:04:25.783Z,989.5
2022-09-18T10:06:51.877Z,989.6
2022-09-18T10:09:17.971Z,989.5
2022-09-18T10:11:44.058Z,989.5
2022-09-18T10:14:10.150Z,989.4
2022-09-18T10:16:36.271Z,989.5
2022-09-18T10:19:01.364Z,989.3
2022-09-18T10:21:27.458Z,989.4
2022-09-18T10:23:53.582Z,989.3
2022-09-18T10:26:19.658Z,989.4
2022-09-18T10:28:45.746Z,989.4
2022-09-18T10:31:11.848Z,989.4
2022-09-18T10:33:37.941Z,989.4
2022-09-18T10:36:04.051Z,989.3
2022-09-18T10:38:30.166Z,989.3
2022-09-18T10:40:56.219Z,989.3
2022-09-18T10:43:22.318Z,989.4
2022-09-18T10:45:48.422Z,989.3
2022-09-18T10:48:14.512Z,989.3
2022-09-18T10:50:39.619Z,989.2
2022-09-18T10:53:05.716Z,989.1
2022-09-18T10:55:31.809Z,989.2
2022-09-18T10:57:57.910Z,989.1
2022-09-18T11:00:24.014Z,989.2
2022-09-18T11:02:50.115Z,989.2
2022-09-18T11:05:16.215Z,989.1
2022-09-18T11:07:42.283Z,989.2
2022-09-18T11:10:08.387Z,989.1
2022-09-18T11:12:34.492Z,989
2022-09-18T11:15:00.580Z,989
2022-09-18T11:17:26.672Z,988.9
2022-09-18T11:19:52.794Z,988.9
2022-09-18T11:22:17.895Z,988.9
2022-09-18T11:24:43.992Z,989
2022-09-18T11:27:10.098Z,988.9
2022-09-18T11:29:36.182Z,988.8
2022-09-18T11:32:02.273Z,988.8
2022-09-18T11:34:28.370Z,988.8
2022-09-18T11:36:54.455Z,988.7
2022-09-18T11:39:20.567Z,988.6
2022-09-18T11:41:46.657Z,988.6
2022-09-18T11:44:12.755Z,988.6
2022-09-18T11:46:38.850Z,988.5
2022-09-18T11:49:04.932Z,988.5
2022-09-18T11:51:31.045Z,988.4
2022-09-18T11:53:56.152Z,988.4
2022-09-18T11:56:22.233Z,988.3
2022-09-18T11:58:48.332Z,988.3
2022-09-18T12:01:14.433Z,988.4
2022-09-18T12:03:40.526Z,988.4
2022-09-18T12:06:06.614Z,988.4
2022-09-18T12:08:31.372Z,988.2
2022-09-18T12:10:57.454Z,988.3
2022-09-18T12:13:23.548Z,988.2
2022-09-18T12:15:49.621Z,988.2
2022-09-18T12:18:15.719Z,988.2
2022-09-18T12:20:41.819Z,988.3
2022-09-18T12:23:07.921Z,988.3
2022-09-18T12:25:33.007Z,988.3
2022-09-18T12:27:59.108Z,988.2
2022-09-18T12:30:25.210Z,988.2
2022-09-18T12:32:51.307Z,988.2
2022-09-18T12:35:17.387Z,988.1
2022-09-18T12:37:43.482Z,988.1
2022-09-18T12:40:09.271Z,988
2022-09-18T12:42:35.366Z,988
2022-09-18T12:45:01.453Z,987.8
2022-09-18T12:47:27.548Z,987.8
2022-09-18T12:49:53.647Z,988
2022-09-18T12:52:19.732Z,987.9
2022-09-18T12:54:45.828Z,987.9
2022-09-18T12:57:11.911Z,987.9
2022-09-18T12:59:38.014Z,987.9
2022-09-18T13:02:04.117Z,987.9
2022-09-18T13:04:30.245Z,987.8
2022-09-18T13:06:56.300Z,987.9
2022-09-18T13:09:22.394Z,988
2022-09-18T13:11:47.497Z,987.9
2022-09-18T13:14:13.652Z,987.8
2022-09-18T13:16:40.506Z,987.9
2022-09-18T13:19:06.567Z,987.8
2022-09-18T13:21:32.725Z,987.9
2022-09-18T13:23:58.808Z,987.9
2022-09-18T13:26:24.911Z,987.8
2022-09-18T13:28:50.960Z,987.9
2022-09-18T13:31:17.095Z,987.8
2022-09-18T13:33:43.208Z,987.8
2022-09-18T13:36:09.297Z,987.8
2022-09-18T13:38:35.361Z,987.7
2022-09-18T13:41:01.420Z,987.8
2022-09-18T13:43:26.582Z,987.7
2022-09-18T13:45:52.670Z,987.7
2022-09-18T13:48:18.636Z,987.6
2022-09-18T13:50:44.732Z,987.7
2022-09-18T13:53:10.835Z,987.7
2022-09-18T13:55:36.917Z,987.7
2022-09-18T13:58:03.020Z,987.7
2022-09-18T14:00:29.111Z,987.6
2022-09-18T14:02:55.194Z,987.6
2022-09-18T14:05:21.291Z,987.6
2022-09-18T14:07:47.397Z,987.7
2022-09-18T14:10:13.483Z,987.7
2022-09-18T14:12:39.600Z,987.6
2022-09-18T14:15:04.695Z,987.6
2022-09-18T14:17:30.772Z,987.5
2022-09-18T14:19:56.876Z,987.6
2022-09-18T14:22:22.961Z,987.6
2022-09-18T14:24:49.058Z,987.6
2022-09-18T14:27:15.149Z,987.6
2022-09-18T14:29:41.241Z,987.6
2022-09-18T14:32:07.351Z,987.5
2022-09-18T14:34:33.431Z,987.6
2022-09-18T14:36:59.545Z,987.5
2022-09-18T14:39:25.619Z,987.5
2022-09-18T14:41:51.726Z,987.5
2022-09-18T14:44:17.826Z,987.5
2022-09-18T14:46:42.936Z,987.4
2022-09-18T14:49:09.025Z,987.4
2022-09-18T14:51:35.139Z,987.4
2022-09-18T14:54:01.223Z,987.5
2022-09-18T14:56:27.310Z,987.4
2022-09-18T14:58:53.409Z,987.3
2022-09-18T15:01:19.506Z,987.2
2022-09-18T15:03:45.602Z,987.2
2022-09-18T15:06:11.697Z,987.2
2022-09-18T15:08:37.782Z,987.1
2022-09-18T15:11:03.906Z,987.2
2022-09-18T15:13:29.986Z,987.2
2022-09-18T15:15:56.092Z,987.1
2022-09-18T15:18:21.200Z,987.1
2022-09-18T15:20:47.280Z,987.1
2022-09-18T15:23:13.372Z,987.2
2022-09-18T15:25:39.481Z,987.2
2022-09-18T15:28:05.587Z,987.1
2022-09-18T15:30:31.690Z,987.1
2022-09-18T15:32:57.779Z,987.1
2022-09-18T15:35:23.886Z,987.1
2022-09-18T15:37:49.982Z,987.1
2022-09-18T15:40:16.075Z,987.1
2022-09-18T15:42:42.173Z,987.1
2022-09-18T15:45:08.272Z,987.1
2022-09-18T15:47:34.373Z,987.1
2022-09-18T15:49:59.487Z,987.1
2022-09-18T15:52:25.584Z,987.1
2022-09-18T15:54:51.672Z,987.1
2022-09-18T15:57:17.770Z,987.1
2022-09-18T15:59:43.858Z,987.1
2022-09-18T16:02:09.970Z,987.1
2022-09-18T16:04:36.050Z,987.1
2022-09-18T16:07:02.149Z,987
2022-09-18T16:09:28.262Z,987.1
2022-09-18T16:11:54.350Z,987
2022-09-18T16:14:20.433Z,987
2022-09-18T16:16:46.530Z,987
2022-09-18T16:19:12.615Z,987.1
2022-09-18T16:21:37.755Z,987
2022-09-18T16:24:03.843Z,986.9
2022-09-18T16:26:29.932Z,986.9
2022-09-18T16:28:56.032Z,986.9
2022-09-18T16:31:22.128Z,986.8
2022-09-18T16:33:48.231Z,986.8
2022-09-18T16:36:14.310Z,986.8
2022-09-18T16:38:40.405Z,986.8
2022-09-18T16:41:06.543Z,986.7
2022-09-18T16:43:32.626Z,986.7
2022-09-18T16:45:58.697Z,986.7
2022-09-18T16:48:24.803Z,986.7
2022-09-18T16:50:50.924Z,986.8
2022-09-18T16:53:16.006Z,986.7
2022-09-18T16:55:42.107Z,986.7
2022-09-18T16:58:08.195Z,986.7
2022-09-18T17:00:34.289Z,986.7
2022-09-18T17:03:00.395Z,986.5
2022-09-18T17:05:26.476Z,986.6
2022-09-18T17:07:52.567Z,986.6
2022-09-18T17:10:18.684Z,986.6
2022-09-18T17:12:44.776Z,986.6
2022-09-18T17:15:10.856Z,986.6
2022-09-18T17:17:36.961Z,986.6
2022-09-18T17:20:03.052Z,986.5
2022-09-18T17:22:29.159Z,986.5
2022-09-18T17:24:54.267Z,986.5
2022-09-18T17:27:20.381Z,986.5
2022-09-18T17:29:46.450Z,986.5
2022-09-18T17:32:12.556Z,986.5
2022-09-18T17:34:38.669Z,986.4
2022-09-18T17:37:04.742Z,986.5
2022-09-18T17:39:30.887Z,986.5
2022-09-18T17:41:56.935Z,986.5
2022-09-18T17:44:23.036Z,986.4
2022-09-18T17:46:49.117Z,986.4
2022-09-18T17:49:15.219Z,986.4
2022-09-18T17:51:41.324Z,986.3
2022-09-18T17:54:07.409Z,986.3
2022-09-18T17:56:32.518Z,986.3
2022-09-18T17:58:58.611Z,986.3
2022-09-18T18:01:24.709Z,986.3
2022-09-18T18:03:50.858Z,986.4
2022-09-18T18:06:16.907Z,986.3
2022-09-18T18:08:42.993Z,986.4
2022-09-18T18:11:09.102Z,986.3
2022-09-18T18:13:35.195Z,986.4
2022-09-18T18:16:01.298Z,986.4
2022-09-18T18:18:27.394Z,986.4
2022-09-18T18:20:53.478Z,986.4
2022-09-18T18:23:19.588Z,986.4
2022-09-18T18:25:45.680Z,986.3
2022-09-18T18:28:10.779Z,986.3
2022-09-18T18:30:36.870Z,986.4
2022-09-18T18:33:02.974Z,986.4
2022-09-18T18:35:29.060Z,986.5
2022-09-18T18:37:55.171Z,986.4
2022-09-18T18:40:21.250Z,986.4
2022-09-18T18:42:47.358Z,986.4
2022-09-18T18:45:13.459Z,986.4
2022-09-18T18:47:39.547Z,986.4
2022-09-18T18:50:05.647Z,986.4
2022-09-18T18:52:31.733Z,986.3
2022-09-18T18:54:57.825Z,986.4
2022-09-18T18:57:23.931Z,986.4
2022-09-18T18:59:49.063Z,986.4
2022-09-18T19:02:15.147Z,986.5
2022-09-18T19:04:41.225Z,986.5
2022-09-18T19:07:07.352Z,986.5
2022-09-18T19:09:33.429Z,986.5
2022-09-18T19:11:59.541Z,986.6
2022-09-18T19:14:25.646Z,986.5
2022-09-18T19:16:51.729Z,986.5
2022-09-18T19:19:17.848Z,986.5
2022-09-18T19:21:43.896Z,986.5
2022-09-18T19:24:09.999Z,986.6
2022-09-18T19:26:36.094Z,986.5
2022-09-18T19:29:02.195Z,986.5
2022-09-18T19:31:27.298Z,986.4
2022-09-18T19:33:53.397Z,986.4
2022-09-18T19:36:19.481Z,986.3
2022-09-18T19:38:45.626Z,986.4
2022-09-18T19:41:11.673Z,986.4
2022-09-18T19:43:37.779Z,986.5
2022-09-18T19:46:03.858Z,986.5
2022-09-18T19:48:29.978Z,986.4
2022-09-18T19:50:56.056Z,986.5
2022-09-18T19:53:22.217Z,986.5
2022-09-18T19:55:48.238Z,986.5
2022-09-18T19:58:14.360Z,986.5
2022-09-18T20:00:40.441Z,986.5
2022-09-18T20:03:05.550Z,986.6
2022-09-18T20:05:31.656Z,986.6
2022-09-18T20:07:57.736Z,986.4
2022-09-18T20:10:23.832Z,986.6
2022-09-18T20:12:49.935Z,986.5
2022-09-18T20:15:16.025Z,986.6
2022-09-18T20:17:42.132Z,986.7
2022-09-18T20:20:08.257Z,986.6
2022-09-18T20:22:34.305Z,986.7
2022-09-18T20:25:00.427Z,986.7
2022-09-18T20:27:26.502Z,986.8
2022-09-18T20:32:18.714Z,986.9
2022-09-18T20:34:43.811Z,987
2022-09-18T20:37:09.894Z,987
2022-09-18T20:39:35.992Z,987.1
2022-09-18T20:42:02.089Z,987.1
2022-09-18T20:44:28.192Z,987.1
2022-09-18T20:46:54.287Z,987.2
2022-09-18T20:49:19.418Z,987.1
2022-09-18T20:51:45.491Z,987.2
2022-09-18T20:54:11.598Z,987.1
2022-09-18T20:56:37.670Z,987.1
2022-09-18T20:59:03.787Z,987
2022-09-18T21:01:29.887Z,987
2022-09-18T21:03:55.977Z,986.9
2022-09-18T21:06:22.074Z,986.9
2022-09-18T21:08:48.193Z,986.9
2022-09-18T21:11:14.250Z,986.8
2022-09-18T21:13:40.342Z,986.8
2022-09-18T21:16:06.437Z,986.7
2022-09-18T21:18:32.543Z,986.8
2022-09-18T21:20:57.657Z,986.7
2022-09-18T21:23:23.766Z,986.7
2022-09-18T21:25:49.846Z,986.7
2022-09-18T21:28:15.954Z,986.6
2022-09-18T21:30:42.029Z,986.6
2022-09-18T21:33:08.118Z,986.5
2022-09-18T21:35:34.238Z,986.5
2022-09-18T21:38:00.306Z,986.5
2022-09-18T21:40:26.406Z,986.5
2022-09-18T21:42:52.503Z,986.5
2022-09-18T21:45:18.652Z,986.5
2022-09-18T21:47:44.745Z,986.6
2022-09-18T21:50:10.789Z,986.6
2022-09-18T21:52:35.904Z,986.7
2022-09-18T21:55:02.006Z,986.6
2022-09-18T21:57:28.107Z,986.6
2022-09-18T21:59:54.188Z,986.7
2022-09-18T22:02:20.285Z,986.7
2022-09-18T22:04:46.377Z,986.7
2022-09-18T22:07:12.502Z,986.6
2022-09-18T22:09:38.580Z,986.7
2022-09-18T22:12:04.676Z,986.6
2022-09-18T22:14:30.773Z,986.6
2022-09-18T22:16:56.856Z,986.6
2022-09-18T22:19:22.969Z,986.7
2022-09-18T22:21:49.052Z,986.7
2022-09-18T22:24:14.160Z,986.8
2022-09-18T22:26:40.250Z,986.8
2022-09-18T22:29:06.357Z,986.7
2022-09-18T22:31:32.477Z,986.8
2022-09-18T22:33:58.638Z,986.8
2022-09-18T22:36:24.648Z,986.9
2022-09-18T22:38:50.747Z,986.9
2022-09-18T22:41:16.893Z,986.9
2022-09-18T22:43:42.957Z,987
2022-09-18T22:46:09.132Z,987
2022-09-18T22:48:35.122Z,987
2022-09-18T22:51:01.210Z,987.1
2022-09-18T22:53:27.304Z,987.1
2022-09-18T22:55:52.443Z,987.2
2022-09-18T22:58:18.527Z,987.2
2022-09-18T23:00:44.609Z,987.3
2022-09-18T23:03:10.701Z,987.4
2022-09-18T23:05:36.818Z,987.4
2022-09-18T23:08:02.896Z,987.5
2022-09-18T23:10:29.014Z,987.4
2022-09-18T23:12:55.103Z,987.5
2022-09-18T23:15:21.176Z,987.7
2022-09-18T23:17:47.278Z,987.7
2022-09-18T23:20:13.385Z,987.8
2022-09-18T23:22:39.503Z,987.8
2022-09-18T23:25:05.581Z,987.8
2022-09-18T23:27:30.674Z,987.8
2022-09-18T23:29:56.762Z,987.8
2022-09-18T23:32:22.862Z,987.9
2022-09-18T23:34:48.986Z,987.8
2022-09-18T23:37:15.060Z,987.7
2022-09-18T23:39:41.154Z,987.8
2022-09-18T23:42:07.255Z,988
2022-09-18T23:44:33.346Z,988
2022-09-18T23:46:59.440Z,988.2
2022-09-18T23:49:25.533Z,988.2
2022-09-18T23:51:51.638Z,988.2
2022-09-18T23:54:17.717Z,988.2
2022-09-18T23:56:43.834Z,988.2
2022-09-18T23:59:08.939Z,988.2
